!!! Benutzen Sie für Ihre Flugvorbereitung die offiziellen Quellen !!!

Metar:

EDQM 221850Z 23020G32KT 200V260 4500 DZ BKN009 OVC012 06/05 Q1004

QNH: 1004
Temperatur: 6
Dew Point : 5

 

METAR (decoded)